Time;durP1;ratioP1;P1;durP2;ratioP2;P2;SDS_P1;SDS_P2;PMS_P1;PMS_P2;Temp;Humidity;BMP_temperature;BMP_pressure;BME280_temperature;BME280_humidity;BME280_pressure;Samples;Min_cycle;Max_cycle;Signal;HPM_P1;HPM_P2
2023/06/27 00:00:33;;;;;;;5.50;2.50;;;;;;;17.70;60.80;99874.55;108048;1253;63803;-93
2023/06/27 00:03:00;;;;;;;4.30;2.30;;;;;;;17.73;60.98;99880.27;108036;1253;60459;-93
2023/06/27 00:05:30;;;;;;;4.70;2.40;;;;;;;17.73;60.80;99879.17;108335;1254;58503;-94
2023/06/27 00:07:58;;;;;;;5.10;2.50;;;;;;;17.69;60.88;99878.70;108244;1253;63710;-92
2023/06/27 00:10:25;;;;;;;4.80;2.40;;;;;;;17.62;61.01;99875.29;108074;1253;60526;-94
2023/06/27 00:12:53;;;;;;;5.00;2.50;;;;;;;17.50;61.31;99876.70;108123;1253;63744;-94
2023/06/27 00:15:21;;;;;;;5.60;3.00;;;;;;;17.38;61.38;99876.21;108798;1258;58361;-94
2023/06/27 00:17:48;;;;;;;5.40;2.70;;;;;;;17.29;61.32;99874.55;108093;1253;60284;-94
2023/06/27 00:20:16;;;;;;;5.40;2.60;;;;;;;17.23;61.22;99875.52;108999;1253;64896;-91
2023/06/27 00:22:45;;;;;;;5.30;2.50;;;;;;;17.18;61.25;99876.49;108868;1253;61355;-93
2023/06/27 00:25:13;;;;;;;7.10;2.90;;;;;;;17.12;61.38;99875.77;108269;1253;63703;-92
2023/06/27 00:27:41;;;;;;;5.50;3.00;;;;;;;17.02;61.51;99872.86;108524;1252;60338;-92
2023/06/27 00:30:08;;;;;;;5.20;2.70;;;;;;;16.92;61.79;99870.67;108150;1253;60440;-93
2023/06/27 00:32:36;;;;;;;7.50;3.50;;;;;;;16.84;62.09;99869.21;108496;1253;73907;-93
2023/06/27 00:35:04;;;;;;;5.70;3.00;;;;;;;16.80;62.34;99869.66;107808;1253;61933;-92
2023/06/27 00:37:31;;;;;;;5.80;3.00;;;;;;;16.78;62.55;99870.13;108109;1253;63815;-93
2023/06/27 00:39:59;;;;;;;5.60;3.00;;;;;;;16.74;62.57;99868.73;108456;1255;60381;-93
2023/06/27 00:42:27;;;;;;;6.00;2.60;;;;;;;16.75;62.67;99868.61;108374;1255;58225;-92
2023/06/27 00:44:55;;;;;;;5.50;3.10;;;;;;;16.74;62.82;99872.48;108038;1253;64127;-93
2023/06/27 00:47:23;;;;;;;7.40;3.70;;;;;;;16.69;63.04;99871.33;108270;1253;61836;-95
2023/06/27 00:49:50;;;;;;;8.50;3.70;;;;;;;16.60;63.19;99869.71;107977;1253;63685;-92
2023/06/27 00:52:18;;;;;;;6.00;3.40;;;;;;;16.51;63.56;99867.17;107922;1255;60526;-94
2023/06/27 00:54:46;;;;;;;5.80;3.10;;;;;;;16.44;63.58;99867.27;107552;1253;60414;-92
2023/06/27 00:57:13;;;;;;;6.40;3.10;;;;;;;16.32;63.69;99864.28;107823;1253;67384;-94
2023/06/27 00:59:42;;;;;;;6.90;3.60;;;;;;;16.24;63.96;99861.85;108151;1253;61333;-93
2023/06/27 01:02:12;;;;;;;6.40;3.60;;;;;;;16.17;64.10;99862.41;107687;1253;63704;-91
2023/06/27 01:04:39;;;;;;;6.00;3.20;;;;;;;16.09;64.54;99866.29;107999;1255;60420;-95
2023/06/27 01:07:15;;;;;;;7.90;3.50;;;;;;;16.04;64.75;99866.90;108039;1253;58982;-93
2023/06/27 01:09:48;;;;;;;6.80;3.50;;;;;;;15.97;64.94;99864.06;107589;1253;63671;-91
2023/06/27 01:13:05;;;;;;;5.80;3.20;;;;;;;15.96;65.06;99860.20;108053;1256;61433;-95
2023/06/27 01:15:32;;;;;;;6.60;3.50;;;;;;;15.99;65.24;99867.32;108353;1253;66433;-94
2023/06/27 01:18:00;;;;;;;6.80;3.40;;;;;;;15.97;65.24;99865.53;107966;1253;59145;-94
2023/06/27 01:20:27;;;;;;;7.20;3.10;;;;;;;15.97;65.43;99870.19;108496;1254;60424;-93
2023/06/27 01:23:02;;;;;;;6.90;3.90;;;;;;;15.95;65.59;99868.96;107928;1254;63815;-93
2023/06/27 01:25:30;;;;;;;7.20;3.60;;;;;;;15.97;65.88;99870.48;108301;1253;60631;-93
2023/06/27 01:27:57;;;;;;;6.80;3.90;;;;;;;16.03;66.01;99867.17;108073;1253;62544;-94
2023/06/27 01:30:25;;;;;;;6.30;3.20;;;;;;;16.13;65.89;99869.59;108570;1254;59219;-93
2023/06/27 01:32:58;;;;;;;7.80;3.30;;;;;;;16.26;65.56;99876.88;108170;1254;59804;-94
2023/06/27 01:35:36;;;;;;;6.30;3.90;;;;;;;16.30;65.27;99876.59;107803;1253;65368;-94
2023/06/27 01:38:15;;;;;;;7.60;4.20;;;;;;;16.25;65.07;99874.98;107781;1253;61546;-92
2023/06/27 01:40:43;;;;;;;7.00;3.90;;;;;;;16.16;65.04;99873.33;108389;1253;63720;-93
2023/06/27 01:43:12;;;;;;;6.30;3.90;;;;;;;16.05;65.10;99872.58;108097;1253;60278;-91
2023/06/27 01:45:40;;;;;;;6.00;3.70;;;;;;;15.95;65.23;99875.12;107975;1253;60418;-93
2023/06/27 01:48:08;;;;;;;6.30;3.10;;;;;;;15.93;65.41;99876.83;107399;1255;64872;-92
2023/06/27 01:50:35;;;;;;;6.20;3.20;;;;;;;15.95;65.38;99874.80;107765;1253;61548;-92
2023/06/27 01:53:04;;;;;;;6.20;3.90;;;;;;;15.98;65.46;99874.63;107535;1253;62477;-93
2023/06/27 01:56:21;;;;;;;7.00;3.80;;;;;;;16.06;65.78;99878.58;107566;1254;60345;-91
2023/06/27 01:58:50;;;;;;;8.20;4.40;;;;;;;16.20;65.75;99878.19;107462;1260;60572;-91
2023/06/27 02:01:18;;;;;;;9.00;3.90;;;;;;;16.29;65.59;99871.59;107728;1253;63693;-92
2023/06/27 02:03:45;;;;;;;6.40;3.80;;;;;;;16.32;65.39;99871.14;107874;1254;61342;-93
2023/06/27 02:06:44;;;;;;;8.10;3.70;;;;;;;16.40;64.92;99874.69;107290;1253;301793;-93
2023/06/27 02:10:07;;;;;;;8.80;4.50;;;;;;;16.26;65.48;99876.06;102405;1290;601085;-58
2023/06/27 02:12:39;;;;;;;6.20;3.70;;;;;;;16.53;64.56;99875.69;104513;1272;59398;-58
2023/06/27 02:15:07;;;;;;;8.80;4.10;;;;;;;16.55;64.43;99871.66;104515;1267;59332;-58
2023/06/27 02:17:34;;;;;;;6.80;3.80;;;;;;;16.54;64.43;99873.48;104769;1266;63231;-57
2023/06/27 02:20:03;;;;;;;6.00;3.70;;;;;;;16.58;64.28;99869.96;104414;1269;62747;-58
2023/06/27 02:22:33;;;;;;;6.70;3.70;;;;;;;16.61;64.13;99866.58;104325;1280;179576;-58
2023/06/27 02:25:01;;;;;;;7.10;4.00;;;;;;;16.61;64.08;99864.42;104652;1268;59268;-58
2023/06/27 02:27:28;;;;;;;7.00;4.50;;;;;;;16.59;64.12;99864.84;104546;1262;59320;-57
2023/06/27 02:29:56;;;;;;;7.40;4.20;;;;;;;16.57;64.15;99865.27;104622;1269;63268;-59
2023/06/27 02:32:24;;;;;;;7.10;3.60;;;;;;;16.58;64.12;99861.96;104705;1269;61585;-57
2023/06/27 02:34:51;;;;;;;6.80;3.70;;;;;;;16.60;63.98;99862.24;104759;1267;64850;-60
2023/06/27 02:37:19;;;;;;;9.10;4.20;;;;;;;16.60;64.10;99858.52;104989;1270;59772;-59
2023/06/27 02:39:46;;;;;;;10.00;4.00;;;;;;;16.58;64.02;99856.20;104789;1266;59596;-59
2023/06/27 02:42:14;;;;;;;6.60;3.80;;;;;;;16.56;64.20;99853.46;104923;1261;64263;-58
2023/06/27 02:44:42;;;;;;;8.90;3.60;;;;;;;16.57;64.27;99849.11;105027;1266;60101;-59
2023/06/27 02:47:09;;;;;;;6.40;3.60;;;;;;;16.61;64.38;99848.15;104926;1264;63770;-57
2023/06/27 02:49:37;;;;;;;5.70;3.80;;;;;;;16.65;64.42;99848.56;104889;1260;59669;-58
2023/06/27 02:52:05;;;;;;;7.90;4.00;;;;;;;16.66;64.47;99851.84;104864;1259;59748;-58
2023/06/27 02:54:33;;;;;;;6.10;4.00;;;;;;;16.64;64.50;99849.77;105087;1266;64498;-59
2023/06/27 02:57:00;;;;;;;6.30;3.70;;;;;;;16.61;64.49;99851.15;104842;1260;63377;-60
2023/06/27 02:59:28;;;;;;;7.10;3.50;;;;;;;16.62;64.52;99847.52;104811;1264;62498;-58
2023/06/27 03:01:55;;;;;;;6.50;3.40;;;;;;;16.69;64.56;99847.79;105095;1265;59826;-58
2023/06/27 03:04:24;;;;;;;8.30;3.90;;;;;;;16.73;64.51;99849.09;104895;1266;60446;-59
2023/06/27 03:06:52;;;;;;;8.30;4.00;;;;;;;16.71;64.67;99847.67;104906;1267;64131;-59
2023/06/27 03:09:20;;;;;;;8.00;3.90;;;;;;;16.73;64.78;99846.35;105019;1264;61319;-58
2023/06/27 03:11:47;;;;;;;6.30;3.50;;;;;;;16.74;64.93;99845.89;104928;1264;63716;-58
2023/06/27 03:14:19;;;;;;;5.90;3.80;;;;;;;16.79;64.76;99843.96;104910;1267;59697;-59
2023/06/27 03:16:49;;;;;;;6.10;3.20;;;;;;;16.85;64.38;99841.45;105015;1266;59564;-61
2023/06/27 03:19:18;;;;;;;6.60;3.70;;;;;;;16.91;64.19;99841.02;105033;1265;64080;-58
2023/06/27 03:22:00;;;;;;;6.20;3.70;;;;;;;16.94;64.30;99844.19;104878;1267;60128;-58
2023/06/27 03:24:29;;;;;;;6.30;3.40;;;;;;;16.97;64.11;99851.09;105179;1264;63858;-57
2023/06/27 03:26:57;;;;;;;6.50;3.50;;;;;;;16.95;64.10;99851.67;104887;1265;59662;-60
2023/06/27 03:29:24;;;;;;;6.40;3.80;;;;;;;16.92;64.14;99851.30;104899;1267;59778;-60
2023/06/27 03:31:52;;;;;;;6.60;3.20;;;;;;;16.96;64.09;99855.17;105502;1265;64131;-59
2023/06/27 03:34:20;;;;;;;6.10;3.50;;;;;;;16.98;63.90;99861.63;104867;1261;61950;-60
2023/06/27 03:36:47;;;;;;;6.30;3.50;;;;;;;16.96;63.79;99857.39;104936;1264;63766;-59
2023/06/27 03:39:15;;;;;;;6.10;3.90;;;;;;;16.94;63.93;99858.20;104996;1265;59838;-58
2023/06/27 03:41:42;;;;;;;6.30;3.60;;;;;;;16.94;63.78;99857.02;104916;1266;59644;-62
2023/06/27 03:44:10;;;;;;;7.80;3.70;;;;;;;16.90;63.80;99856.87;104805;1261;62826;-59
2023/06/27 03:46:38;;;;;;;5.70;3.60;;;;;;;16.86;64.01;99853.08;104908;1260;61595;-60
2023/06/27 03:49:06;;;;;;;6.40;3.50;;;;;;;16.88;64.18;99847.52;105041;1269;63681;-58
2023/06/27 03:51:34;;;;;;;7.40;3.40;;;;;;;16.98;64.09;99841.30;104758;1261;59829;-58
2023/06/27 03:54:06;;;;;;;7.60;3.60;;;;;;;17.10;64.00;99841.61;104980;1261;59598;-58
2023/06/27 03:56:33;;;;;;;6.10;3.90;;;;;;;17.19;63.76;99843.13;105021;1260;62886;-58
2023/06/27 03:59:01;;;;;;;6.60;3.70;;;;;;;17.25;63.91;99840.42;104912;1260;61734;-57
2023/06/27 04:01:29;;;;;;;6.30;3.50;;;;;;;17.36;63.84;99835.10;104962;1265;63743;-58
2023/06/27 04:03:56;;;;;;;6.40;3.50;;;;;;;17.51;63.47;99833.66;104970;1264;59705;-58
2023/06/27 04:06:24;;;;;;;6.50;3.50;;;;;;;17.64;63.12;99835.16;105020;1261;60306;-58
2023/06/27 04:08:51;;;;;;;6.50;3.90;;;;;;;17.73;62.94;99831.31;104891;1260;64249;-58
2023/06/27 04:11:19;;;;;;;6.60;4.20;;;;;;;17.77;62.96;99830.92;104895;1266;60300;-59
2023/06/27 04:13:47;;;;;;;6.30;3.40;;;;;;;17.83;62.83;99825.85;104835;1263;63706;-59
2023/06/27 04:16:14;;;;;;;6.70;3.40;;;;;;;17.91;62.75;99821.15;104794;1261;59857;-59
2023/06/27 04:18:42;;;;;;;5.70;3.30;;;;;;;17.99;62.68;99815.70;105102;1260;59678;-59
2023/06/27 04:21:10;;;;;;;7.10;3.60;;;;;;;18.05;62.41;99812.11;104907;1261;62885;-58
2023/06/27 04:23:37;;;;;;;7.90;3.50;;;;;;;18.05;62.33;99817.17;105146;1261;61623;-58
2023/06/27 04:26:07;;;;;;;6.80;3.70;;;;;;;18.05;61.81;99815.37;104914;1266;62599;-58
2023/06/27 04:28:36;;;;;;;6.10;3.70;;;;;;;18.02;61.48;99815.94;104965;1264;59746;-57
2023/06/27 04:31:04;;;;;;;5.80;3.70;;;;;;;17.99;61.63;99820.14;104816;1265;60424;-57
2023/06/27 04:33:31;;;;;;;6.30;3.70;;;;;;;18.01;61.61;99821.70;104964;1260;66447;-57
2023/06/27 04:36:01;;;;;;;6.40;3.90;;;;;;;18.03;61.61;99821.17;105135;1261;61383;-58
2023/06/27 04:38:39;;;;;;;6.30;3.50;;;;;;;18.03;61.71;99818.28;105009;1261;64282;-57
2023/06/27 04:41:07;;;;;;;6.00;3.60;;;;;;;18.03;61.99;99818.64;105042;1264;59736;-57
2023/06/27 04:43:35;;;;;;;6.70;4.00;;;;;;;18.06;61.99;99818.73;105245;1261;59709;-59
2023/06/27 04:46:04;;;;;;;6.40;3.70;;;;;;;18.13;61.68;99817.86;105009;1260;62865;-57
2023/06/27 04:48:31;;;;;;;5.90;3.60;;;;;;;18.18;61.51;99818.06;104850;1266;63185;-58
2023/06/27 04:50:59;;;;;;;6.40;3.50;;;;;;;18.21;61.60;99821.73;104723;1270;63767;-59
2023/06/27 04:53:32;;;;;;;6.70;3.70;;;;;;;18.26;61.67;99820.83;104941;1261;59706;-59
2023/06/27 04:56:00;;;;;;;7.10;3.90;;;;;;;18.30;61.36;99816.31;104996;1260;59763;-58
2023/06/27 04:58:27;;;;;;;5.90;3.30;;;;;;;18.34;60.80;99813.86;105147;1261;65764;-59
2023/06/27 05:00:55;;;;;;;6.20;3.70;;;;;;;18.43;60.75;99819.73;105047;1266;61415;-60
2023/06/27 05:03:22;;;;;;;5.80;3.30;;;;;;;18.49;59.61;99816.83;105456;1264;64504;-59
2023/06/27 05:05:50;;;;;;;6.30;3.70;;;;;;;18.53;59.49;99811.90;105088;1260;59654;-60
2023/06/27 05:08:18;;;;;;;5.80;3.30;;;;;;;18.55;59.59;99806.30;104913;1266;59567;-59
2023/06/27 05:10:45;;;;;;;5.70;3.30;;;;;;;18.58;59.49;99806.12;105363;1257;73135;-58
2023/06/27 05:13:16;;;;;;;7.20;4.20;;;;;;;18.63;59.55;99806.27;105473;1261;61308;-59
2023/06/27 05:15:43;;;;;;;6.90;3.90;;;;;;;18.71;59.78;99809.83;105342;1260;62465;-58
2023/06/27 05:18:14;;;;;;;6.00;3.40;;;;;;;18.80;59.67;99809.59;105674;1257;59694;-58
2023/06/27 05:20:42;;;;;;;7.70;4.10;;;;;;;18.86;59.14;99812.09;105302;1258;59833;-59
2023/06/27 05:23:09;;;;;;;6.10;3.60;;;;;;;18.88;59.03;99812.45;105359;1257;62860;-58
2023/06/27 05:25:37;;;;;;;7.00;3.60;;;;;;;18.90;58.82;99813.03;105283;1258;61298;-57
2023/06/27 05:28:05;;;;;;;5.40;3.20;;;;;;;18.97;57.97;99811.45;105419;1260;63781;-60
2023/06/27 05:30:33;;;;;;;6.10;3.50;;;;;;;19.05;57.05;99812.52;105060;1257;59752;-58
2023/06/27 05:33:01;;;;;;;6.40;3.70;;;;;;;19.10;56.53;99816.95;105132;1260;59784;-64
2023/06/27 05:35:29;;;;;;;6.90;3.70;;;;;;;19.11;55.96;99821.09;105621;1260;64100;-67
2023/06/27 05:37:58;;;;;;;7.20;3.20;;;;;;;19.11;56.21;99815.92;106034;1257;61481;-67
2023/06/27 05:40:25;;;;;;;6.20;3.20;;;;;;;19.12;56.51;99811.83;105801;1257;62515;-64
2023/06/27 05:42:53;;;;;;;6.80;3.80;;;;;;;19.15;56.34;99812.67;105929;1260;59762;-61
2023/06/27 05:45:20;;;;;;;6.90;3.30;;;;;;;19.12;56.15;99809.58;105373;1260;59781;-62
2023/06/27 05:47:48;;;;;;;6.40;3.50;;;;;;;19.09;56.17;99811.23;105857;1257;65284;-65
2023/06/27 05:50:15;;;;;;;5.60;3.10;;;;;;;19.11;56.39;99813.17;105813;1262;60100;-67
2023/06/27 05:52:43;;;;;;;5.70;3.20;;;;;;;19.16;56.18;99811.58;105869;1258;63777;-63
2023/06/27 05:55:10;;;;;;;7.30;3.90;;;;;;;19.20;55.59;99811.48;105831;1257;59812;-64
2023/06/27 05:57:38;;;;;;;6.10;3.30;;;;;;;19.21;55.30;99807.02;105858;1256;59612;-62
2023/06/27 06:00:10;;;;;;;6.50;4.00;;;;;;;19.23;55.29;99802.67;105569;1257;62907;-60
2023/06/27 06:02:38;;;;;;;5.60;3.30;;;;;;;19.24;54.98;99798.64;105566;1260;61353;-61
2023/06/27 06:05:09;;;;;;;6.30;3.40;;;;;;;19.29;55.11;99794.80;105855;1257;63729;-62
2023/06/27 06:07:41;;;;;;;6.10;3.50;;;;;;;19.36;54.92;99791.00;105469;1258;60877;-62
2023/06/27 06:10:10;;;;;;;6.20;3.10;;;;;;;19.41;54.72;99789.26;105940;1257;59653;-60
2023/06/27 06:12:37;;;;;;;6.30;3.50;;;;;;;19.43;54.87;99795.69;105992;1257;62839;-65
2023/06/27 06:15:06;;;;;;;5.90;2.90;;;;;;;19.48;54.89;99795.31;109042;1257;60245;-59
2023/06/27 06:17:35;;;;;;;7.00;3.00;;;;;;;19.55;54.55;99799.34;109010;1256;63109;-64
2023/06/27 06:20:09;;;;;;;6.10;3.30;;;;;;;19.61;54.75;99795.55;108852;1259;58621;-66
2023/06/27 06:22:37;;;;;;;5.70;3.30;;;;;;;19.65;54.64;99793.80;109011;1257;58294;-63
2023/06/27 06:25:05;;;;;;;4.90;3.10;;;;;;;19.71;54.48;99792.66;109001;1256;67480;-65
2023/06/27 06:27:32;;;;;;;5.50;3.50;;;;;;;19.80;54.99;99793.55;107338;1256;61998;-68
2023/06/27 06:30:00;;;;;;;5.70;3.20;;;;;;;19.89;54.39;99796.52;105831;1261;62479;-68
2023/06/27 06:32:28;;;;;;;6.50;3.30;;;;;;;19.95;53.58;99796.86;105826;1258;60440;-72
2023/06/27 06:34:55;;;;;;;5.60;3.30;;;;;;;20.01;53.44;99800.67;105803;1260;60424;-68
2023/06/27 06:37:23;;;;;;;5.40;2.90;;;;;;;20.05;53.43;99802.25;105860;1260;64859;-69
2023/06/27 06:39:51;;;;;;;5.40;3.20;;;;;;;20.09;54.14;99795.12;105664;1257;61362;-71
2023/06/27 06:42:19;;;;;;;6.40;3.80;;;;;;;20.12;54.30;99792.25;105756;1257;65964;-75
2023/06/27 06:44:48;;;;;;;5.80;3.10;;;;;;;20.16;53.72;99792.85;105737;1260;60587;-75
2023/06/27 06:47:16;;;;;;;5.20;2.70;;;;;;;20.20;52.43;99791.24;105805;1257;60389;-63
2023/06/27 06:49:44;;;;;;;5.70;3.10;;;;;;;20.21;52.61;99796.27;105813;1262;74024;-69
2023/06/27 06:52:12;;;;;;;5.40;2.90;;;;;;;20.21;52.74;99799.27;105903;1257;61373;-71
2023/06/27 06:54:43;;;;;;;5.70;2.90;;;;;;;20.20;52.59;99799.19;105856;1257;66330;-67
2023/06/27 06:57:11;;;;;;;6.90;2.80;;;;;;;20.18;52.27;99799.27;105402;1257;60635;-67
2023/06/27 06:59:38;;;;;;;5.90;3.10;;;;;;;20.18;52.66;99794.63;105580;1257;60640;-60
2023/06/27 07:02:06;;;;;;;5.20;2.90;;;;;;;20.22;53.00;99792.70;105264;1257;63711;-61
2023/06/27 07:04:34;;;;;;;9.70;3.60;;;;;;;20.29;52.65;99790.96;105196;1257;61900;-62
2023/06/27 07:08:06;;;;;;;5.30;2.70;;;;;;;20.26;52.12;99782.98;104481;1286;601398;-94
2023/06/27 07:12:57;;;;;;;5.70;2.90;;;;;;;20.30;51.90;99785.48;105579;1291;605326;-92
2023/06/27 07:15:25;;;;;;;7.50;2.90;;;;;;;20.51;52.02;99785.95;108555;1265;57316;-92
2023/06/27 07:17:53;;;;;;;6.50;2.60;;;;;;;20.57;51.80;99783.16;108052;1266;59230;-92
2023/06/27 07:20:20;;;;;;;5.70;3.00;;;;;;;20.64;51.47;99777.49;108257;1267;62146;-92
2023/06/27 07:22:46;;;;;;;5.20;2.90;;;;;;;20.69;51.09;99778.58;107765;1267;60498;-94
2023/06/27 07:25:13;;;;;;;5.30;2.90;;;;;;;20.75;50.65;99778.16;106920;1266;203392;-94
2023/06/27 07:27:43;;;;;;;5.60;2.60;;;;;;;20.80;50.26;99771.09;107595;1264;59142;-94
2023/06/27 07:30:10;;;;;;;6.00;3.20;;;;;;;20.86;50.48;99771.22;108445;1265;57036;-94
2023/06/27 07:32:40;;;;;;;5.40;2.80;;;;;;;20.92;50.26;99767.57;108388;1264;63658;-93
2023/06/27 07:35:07;;;;;;;6.10;3.00;;;;;;;21.01;50.34;99768.30;108449;1264;60348;-93
2023/06/27 07:37:34;;;;;;;6.40;2.80;;;;;;;21.10;49.86;99762.22;108986;1256;64169;-93
2023/06/27 07:40:02;;;;;;;6.40;2.60;;;;;;;21.19;49.03;99755.37;108968;1257;57355;-93
2023/06/27 07:42:29;;;;;;;5.40;3.00;;;;;;;21.25;48.06;99759.14;108966;1257;57844;-94
2023/06/27 07:44:56;;;;;;;6.70;2.80;;;;;;;21.31;47.04;99764.16;108668;1257;64066;-94
2023/06/27 07:47:22;;;;;;;4.70;2.40;;;;;;;21.39;47.08;99772.30;108238;1257;60250;-92
2023/06/27 07:49:49;;;;;;;4.70;2.50;;;;;;;21.47;47.55;99772.47;108490;1256;62529;-92
2023/06/27 07:52:16;;;;;;;5.90;2.60;;;;;;;21.53;47.24;99773.20;108094;1259;59174;-94
2023/06/27 07:54:42;;;;;;;5.20;2.40;;;;;;;21.57;47.01;99769.20;108179;1256;59268;-95
2023/06/27 07:57:09;;;;;;;5.00;2.40;;;;;;;21.59;46.92;99767.98;108381;1256;63243;-93
2023/06/27 07:59:36;;;;;;;5.40;2.60;;;;;;;21.60;46.50;99768.02;108491;1257;60197;-93
2023/06/27 08:02:03;;;;;;;6.40;2.70;;;;;;;21.61;46.73;99766.48;108642;1256;63694;-94
2023/06/27 08:04:30;;;;;;;5.70;3.00;;;;;;;21.62;47.04;99768.61;108446;1256;57961;-94
2023/06/27 08:06:57;;;;;;;6.00;2.90;;;;;;;21.65;46.45;99766.95;107979;1256;59781;-93
2023/06/27 08:09:24;;;;;;;7.40;2.80;;;;;;;21.69;46.92;99768.42;108140;1259;64453;-92
2023/06/27 08:11:51;;;;;;;5.10;2.80;;;;;;;21.73;46.92;99772.34;108447;1256;63576;-94
2023/06/27 08:14:18;;;;;;;5.20;2.50;;;;;;;21.81;46.95;99766.79;108131;1256;71055;-94
2023/06/27 08:16:45;;;;;;;5.00;2.90;;;;;;;21.90;47.19;99766.80;108155;1257;58610;-94
2023/06/27 08:19:11;;;;;;;5.00;2.80;;;;;;;21.96;46.77;99766.12;108178;1259;59316;-95
2023/06/27 08:21:38;;;;;;;5.80;3.20;;;;;;;22.01;47.04;99761.69;107832;1259;64266;-95
2023/06/27 08:24:13;;;;;;;5.60;3.00;;;;;;;22.07;47.38;99768.17;107560;1256;60902;-94
2023/06/27 08:26:39;;;;;;;6.10;2.90;;;;;;;22.14;47.07;99768.80;107882;1256;64068;-92
2023/06/27 08:29:06;;;;;;;6.10;3.00;;;;;;;22.19;46.11;99770.12;108295;1261;57571;-94
2023/06/27 08:31:34;;;;;;;5.30;3.20;;;;;;;22.16;46.15;99767.95;107583;1256;59499;-92
2023/06/27 08:34:01;;;;;;;5.40;3.00;;;;;;;22.18;46.37;99764.02;107621;1261;63873;-92
2023/06/27 08:36:29;;;;;;;5.40;2.90;;;;;;;22.22;46.22;99759.92;108163;1256;61473;-95
2023/06/27 08:38:55;;;;;;;5.70;2.70;;;;;;;22.23;46.30;99755.75;107526;1257;64054;-96
2023/06/27 08:41:23;;;;;;;5.10;2.80;;;;;;;22.23;46.31;99757.41;107913;1256;59535;-93
2023/06/27 08:43:49;;;;;;;5.80;2.90;;;;;;;22.23;45.82;99763.59;107476;1256;59645;-94
2023/06/27 08:46:17;;;;;;;5.60;3.00;;;;;;;22.29;46.03;99761.55;107868;1256;62938;-94
2023/06/27 08:48:44;;;;;;;6.00;3.00;;;;;;;22.33;45.41;99762.95;108419;1256;61633;-95
2023/06/27 08:51:11;;;;;;;5.60;3.10;;;;;;;22.40;45.93;99758.41;108198;1256;73179;-94
2023/06/27 08:53:39;;;;;;;5.30;3.00;;;;;;;22.48;45.96;99758.61;107925;1256;57631;-96
2023/06/27 08:56:10;;;;;;;6.80;3.20;;;;;;;22.57;46.29;99751.37;108422;1256;57497;-94
2023/06/27 08:58:48;;;;;;;5.90;3.00;;;;;;;22.67;45.27;99749.27;108013;1257;64094;-94
2023/06/27 09:01:15;;;;;;;5.40;3.00;;;;;;;22.74;45.49;99745.14;108166;1256;62868;-95
2023/06/27 09:03:42;;;;;;;5.80;2.90;;;;;;;22.78;45.25;99745.81;107984;1262;64490;-93
2023/06/27 09:06:10;;;;;;;6.30;2.60;;;;;;;22.82;45.14;99743.55;108076;1256;58797;-94
2023/06/27 09:08:37;;;;;;;5.50;3.30;;;;;;;22.86;44.45;99739.35;108163;1256;59010;-93
2023/06/27 09:11:09;;;;;;;5.80;3.40;;;;;;;22.89;44.46;99734.30;108126;1256;64217;-92
2023/06/27 09:13:37;;;;;;;7.80;3.30;;;;;;;22.89;44.17;99734.91;108669;1256;62768;-94
2023/06/27 09:16:05;;;;;;;6.80;3.20;;;;;;;22.93;44.21;99736.86;108604;1257;62553;-94
2023/06/27 09:18:36;;;;;;;5.60;3.30;;;;;;;22.99;44.63;99728.84;107951;1259;57844;-93
2023/06/27 09:21:03;;;;;;;5.50;3.00;;;;;;;23.07;45.15;99721.61;107913;1256;58588;-95
2023/06/27 09:23:30;;;;;;;7.00;2.60;;;;;;;23.16;44.49;99728.05;108246;1256;64409;-92
2023/06/27 09:26:10;;;;;;;6.40;2.60;;;;;;;23.21;44.73;99732.13;108226;1258;70055;-92
2023/06/27 09:28:46;;;;;;;6.20;3.10;;;;;;;23.28;44.32;99734.95;108130;1256;67260;-93
2023/06/27 09:31:13;;;;;;;5.70;3.30;;;;;;;23.34;44.05;99730.22;107975;1259;58625;-92
2023/06/27 09:33:43;;;;;;;6.10;3.90;;;;;;;23.41;44.33;99726.02;107849;1256;61738;-91
2023/06/27 09:36:29;;;;;;;8.20;3.90;;;;;;;23.48;44.08;99727.67;107769;1259;63011;-93
2023/06/27 09:39:02;;;;;;;;;;;;;;;23.50;44.04;99728.08;107906;1258;61533;-95
2023/06/27 09:41:55;;;;;;;7.00;3.40;;;;;;;23.51;44.28;99733.06;107948;1256;63966;-91
2023/06/27 09:44:23;;;;;;;6.50;4.00;;;;;;;23.53;43.83;99735.39;107814;1256;59015;-94
2023/06/27 09:46:52;;;;;;;7.20;3.00;;;;;;;23.59;43.40;99732.60;107994;1256;59137;-93
2023/06/27 09:49:30;;;;;;;6.10;3.50;;;;;;;23.68;43.62;99733.68;108200;1256;63064;-92
2023/06/27 09:51:57;;;;;;;5.90;3.60;;;;;;;23.76;43.15;99733.27;108446;1256;61755;-93
2023/06/27 09:54:26;;;;;;;6.40;4.00;;;;;;;23.79;43.47;99733.18;108554;1257;62958;-90
2023/06/27 09:56:52;;;;;;;6.40;3.70;;;;;;;23.85;43.20;99733.80;108499;1256;58129;-91
2023/06/27 09:59:21;;;;;;;8.70;4.10;;;;;;;23.92;42.98;99734.32;108061;1257;59340;-91
2023/06/27 10:01:52;;;;;;;6.60;3.90;;;;;;;23.99;42.70;99736.38;108274;1256;64191;-91
2023/06/27 10:04:19;;;;;;;6.70;3.80;;;;;;;24.09;42.54;99732.63;108323;1257;61747;-91
2023/06/27 10:06:46;;;;;;;7.20;3.50;;;;;;;24.21;42.57;99736.23;108284;1256;62586;-90
2023/06/27 10:09:15;;;;;;;6.50;3.80;;;;;;;24.35;41.61;99734.85;108121;1260;59194;-93
2023/06/27 10:11:42;;;;;;;7.60;4.30;;;;;;;24.42;41.29;99736.54;108086;1257;59613;-91
2023/06/27 10:14:09;;;;;;;6.90;3.80;;;;;;;24.42;41.30;99735.09;108108;1257;63675;-91
2023/06/27 10:16:37;;;;;;;7.00;3.80;;;;;;;24.42;41.45;99729.23;107875;1260;62021;-90
2023/06/27 10:19:03;;;;;;;6.10;3.50;;;;;;;24.45;41.96;99729.73;107817;1257;63914;-92
2023/06/27 10:21:31;;;;;;;6.20;3.30;;;;;;;24.47;42.68;99726.45;107801;1256;59530;-92
2023/06/27 10:23:59;;;;;;;8.40;3.60;;;;;;;24.47;42.50;99730.01;107568;1258;59596;-89
2023/06/27 10:26:26;;;;;;;6.40;3.60;;;;;;;24.50;42.17;99740.39;107893;1256;64153;-93
2023/06/27 10:28:56;;;;;;;6.00;3.70;;;;;;;24.58;41.78;99730.36;108116;1261;60333;-92
2023/06/27 10:31:45;;;;;;;5.40;3.30;;;;;;;24.67;41.51;99729.94;108387;1262;62890;-92
2023/06/27 10:34:20;;;;;;;5.60;3.30;;;;;;;24.70;41.71;99723.92;108730;1256;59264;-92
2023/06/27 10:37:01;;;;;;;8.80;3.30;;;;;;;24.74;42.17;99715.37;108330;1256;59504;-91
2023/06/27 10:39:34;;;;;;;11.40;3.80;;;;;;;24.80;42.51;99720.20;108577;1258;63287;-91
2023/06/27 10:43:53;;;;;;;5.40;3.00;;;;;;;24.73;42.60;99718.48;103930;1295;600124;-90
2023/06/27 10:46:29;;;;;;;4.90;3.20;;;;;;;24.89;41.96;99713.66;106611;1266;59226;-91
2023/06/27 10:48:58;;;;;;;6.80;3.20;;;;;;;24.94;41.46;99717.61;105818;1267;59209;-91
2023/06/27 10:51:41;;;;;;;6.70;3.40;;;;;;;24.93;41.83;99716.09;105709;1270;63319;-93
2023/06/27 10:54:09;;;;;;;4.90;3.20;;;;;;;24.88;41.80;99717.42;105891;1267;61728;-92
2023/06/27 10:56:44;;;;;;;7.40;3.90;;;;;;;24.83;41.84;99712.30;105751;1267;238460;-89
2023/06/27 10:59:16;;;;;;;5.70;3.50;;;;;;;24.80;42.08;99712.92;107281;1263;59141;-90
2023/06/27 11:01:59;;;;;;;6.40;3.60;;;;;;;24.81;42.18;99715.67;108887;1257;57437;-90
2023/06/27 11:04:40;;;;;;;6.20;3.50;;;;;;;24.83;41.89;99716.51;108893;1257;62188;-90
2023/06/27 11:07:12;;;;;;;6.80;3.70;;;;;;;24.88;42.24;99712.41;108891;1257;60140;-90
2023/06/27 11:09:48;;;;;;;7.20;3.90;;;;;;;24.96;42.10;99714.38;108979;1257;62511;-91
2023/06/27 11:12:16;;;;;;;6.10;4.00;;;;;;;25.01;42.00;99717.40;108782;1254;58105;-90
2023/06/27 11:14:44;;;;;;;6.10;3.60;;;;;;;25.02;42.30;99721.56;109031;1254;57696;-91
2023/06/27 11:17:12;;;;;;;6.30;3.40;;;;;;;25.06;42.42;99719.81;108819;1254;64202;-91
2023/06/27 11:19:43;;;;;;;6.70;3.90;;;;;;;25.08;41.56;99717.13;108620;1253;60667;-91
2023/06/27 11:22:11;;;;;;;5.90;3.50;;;;;;;25.09;41.91;99715.75;109306;1252;62619;-92
2023/06/27 11:24:41;;;;;;;6.50;3.90;;;;;;;25.10;42.17;99711.45;108610;1253;59215;-91
2023/06/27 11:27:09;;;;;;;5.90;3.50;;;;;;;25.16;42.17;99710.63;108839;1251;59421;-91
2023/06/27 11:29:38;;;;;;;7.10;3.40;;;;;;;25.27;41.97;99712.19;108889;1251;62826;-91
2023/06/27 11:32:06;;;;;;;5.90;3.80;;;;;;;25.36;41.59;99712.52;108174;1251;62027;-91
2023/06/27 11:34:34;;;;;;;6.70;3.60;;;;;;;25.40;41.12;99711.33;108571;1253;64861;-90
2023/06/27 11:37:01;;;;;;;6.50;3.80;;;;;;;25.39;40.94;99712.17;108250;1252;60014;-91
2023/06/27 11:39:29;;;;;;;6.80;3.60;;;;;;;25.39;41.14;99707.83;108288;1252;59730;-91